Alt de San Lorenzo, Puerto Rico
Current Conditions -  °F | °C
As of 2:56 PM on Wednesday 26 Nov 2014 (Local Time) from TJSJ Reporting Station
Scattered Clouds Scattered Clouds  
Wind Chill: 29°   Ceiling: Unl
Heat Index: 33°   Visibility: 10mi
Dew Point: 23°   Wind: 17mph
Humidity: 72%   Direction: 50°NE
Pressure: 29.97"   Gusts: NA
Location:  18.1909°N, 65.9618°W
Report Text: TJSJ 261856Z 05015KT 10SM SCT027 29/23 A2997 RMK AO2 SLP148 VCSH W T02890233
Loading
Personal Weather Stations






























Interactive Weather Map New forecast layout! Learn more

10-Day Weather Forecast

Advertisements
Track Severe Weather on mobile